Latest Weather Observations for Wudinna Airport

IDS60801

Issued at 11:01 pm CST Tuesday 1 September 2015 (issued every 30 minutes, with the page automatically refreshed every 10 minutes)

About weather observations | Map of weather stations | Latest weather observations for SA | Other Formats
Station Details ID: 018083 Name: WUDINNA AERO Lat: -33.04 Lon: 135.45 Height: 86.4 m
Data from the previous 72 hours. | See also: Recent months at Wudinna Airport
Date/Time
CST
Temp
°C
App
Temp
°C
Dew
Point
Rel
Hum
%
Delta-T
°C
Wind Press
QNH
hPa
Press
MSL
hPa
Rain
since 9 am
mm
Dir
 
Spd
km/h
Gust
km/h
Spd
kts
Gust
kts
01/11:00pm 10.5 6.8 7.9 84 1.3 NNW 17 24 9 13 1007.6 - 17.2
01/10:30pm 10.7 7.0 8.1 84 1.3 NNW 17 24 9 13 1007.6 - 17.2
01/10:00pm 11.6 7.2 8.8 83 1.4 WNW 22 33 12 18 1007.2 - 17.2
01/09:30pm 11.7 8.5 9.8 88 1.0 NW 17 22 9 12 1007.1 - 17.2
01/09:00pm 12.4 9.9 11.0 91 0.7 NW 15 20 8 11 1007.4 1007.4 17.2
01/08:30pm 12.3 8.4 10.7 90 0.8 W 22 30 12 16 1006.8 - 17.2
01/08:00pm 12.7 8.6 11.3 91 0.7 WNW 24 33 13 18 1007.0 - 16.8
01/07:30pm 12.9 9.2 11.5 91 0.7 NW 22 32 12 17 1006.2 - 15.4
01/07:00pm 13.1 11.6 12.0 93 0.6 WNW 11 17 6 9 1005.5 - 14.4
01/06:30pm 13.6 9.7 12.0 90 0.9 W 24 33 13 18 1005.4 - 11.2
01/06:12pm 14.1 9.5 11.1 82 1.6 NNW 26 33 14 18 1004.9 - 8.2
01/06:00pm 15.2 12.1 10.2 72 2.6 N 17 26 9 14 1002.9 1002.8 5.4
01/05:30pm 17.6 13.3 7.1 50 5.3 NNE 19 24 10 13 1002.0 - 5.0
01/05:00pm 17.9 12.6 6.7 48 5.6 NNE 24 32 13 17 1002.1 - 5.0
01/04:30pm 19.7 14.6 7.8 46 6.1 NNE 24 41 13 22 1002.6 - 5.0
01/04:00pm 19.5 14.8 7.9 47 6.0 NNE 22 33 12 18 1003.5 - 5.0
01/03:30pm 19.2 14.1 7.6 47 5.9 N 24 37 13 20 1004.1 - 5.0
01/03:00pm 19.5 13.2 7.3 45 6.2 N 30 43 16 23 1004.7 1004.6 5.0
01/02:30pm 17.8 12.5 8.6 55 4.8 N 26 39 14 21 1005.2 - 5.0
01/02:08pm 18.1 12.4 8.4 53 5.0 N 28 46 15 25 1005.4 - 5.0
01/02:00pm 18.2 12.7 9.3 56 4.7 N 28 39 15 21 1005.5 - 5.0
01/01:30pm 18.5 14.0 11.3 63 3.9 N 26 33 14 18 1005.7 - 5.0
01/01:00pm 17.7 12.1 10.3 62 4.0 N 30 50 16 27 1006.1 - 4.6
01/12:38pm 18.6 13.0 10.2 58 4.5 NNE 30 50 16 27 1006.3 - 4.6
01/12:30pm 18.3 13.0 11.4 64 3.8 NNE 30 43 16 23 1006.5 - 4.6
01/12:00pm 15.7 10.3 9.4 66 3.3 NNE 28 41 15 22 1007.9 1007.8 4.6
01/11:30am 12.2 7.5 9.4 83 1.4 NNE 24 35 13 19 1008.4 - 4.6
01/11:00am 11.5 5.9 8.7 83 1.4 NNE 28 39 15 21 1009.2 - 3.2
01/10:30am 11.1 5.5 8.8 86 1.1 NNE 28 39 15 21 1009.9 - 3.2
01/10:00am 11.0 4.7 8.8 86 1.1 N 32 43 17 23 1010.4 - 3.0
01/09:30am 11.0 4.7 8.8 86 1.1 N 32 41 17 22 1010.9 - 1.8
01/09:11am 11.4 5.4 8.6 83 1.4 N 30 48 16 26 1011.1 - 0.4
01/09:00am 11.5 6.2 8.5 82 1.5 N 26 37 14 20 1011.0 1010.9 1.4
01/08:30am 13.8 8.4 6.4 61 3.6 N 24 39 13 21 1011.0 - 1.0
01/08:00am 14.7 8.8 6.0 56 4.2 N 26 37 14 20 1010.2 - 1.0
01/07:30am 13.8 7.0 7.6 66 3.1 N 33 52 18 28 1009.6 - 1.0
01/07:28am 13.9 6.9 7.0 63 3.4 N 33 52 18 28 1009.6 - 1.0
01/07:00am 15.8 8.1 3.3 43 5.7 N 33 44 18 24 1009.7 - 1.0
01/06:30am 15.9 9.6 4.0 45 5.5 N 26 37 14 20 1009.9 - 1.0
01/06:00am 15.9 9.0 2.3 40 6.1 N 28 39 15 21 1009.8 1009.7 1.0
01/05:30am 16.0 9.1 2.4 40 6.1 N 28 37 15 20 1009.7 - 1.0
01/05:00am 15.5 9.1 3.0 43 5.7 N 26 35 14 19 1010.2 - 1.0
01/04:30am 15.2 8.9 4.0 47 5.2 N 26 35 14 19 1010.3 - 1.0
01/04:00am 14.7 9.3 4.4 50 4.8 N 22 28 12 15 1010.7 - 1.0
01/03:30am 14.5 9.2 5.0 53 4.5 N 22 32 12 17 1011.1 - 1.0
01/03:00am 14.5 9.2 5.0 53 4.5 N 22 30 12 16 1011.7 1011.6 1.0
01/02:30am 14.2 8.9 5.0 54 4.3 N 22 32 12 17 1012.0 - 1.0
01/02:00am 14.3 9.4 5.1 54 4.3 NNE 20 28 11 15 1012.5 - 1.0
01/01:30am 14.0 9.2 5.6 57 4.0 NNE 20 26 11 14 1012.6 - 1.0
01/01:00am 11.7 8.2 7.2 74 2.2 NNE 15 19 8 10 1013.0 - 1.0
01/12:30am 9.8 7.1 7.2 84 1.2 NNE 11 13 6 7 1013.7 - 1.0
01/12:00am 10.3 8.2 8.1 86 1.1 NNE 9 13 5 7 1014.0 1013.9 1.0
 
Date/Time
CST
Temp
°C
App
Temp
°C
Dew
Point
Rel
Hum
%
Delta-T
°C
Wind Press
QNH
hPa
Press
MSL
hPa
Rain
since 9 am
mm
Dir
 
Spd
km/h
Gust
km/h
Spd
kts
Gust
kts
31/11:30pm 9.9 6.9 7.8 87 1.0 NE 13 15 7 8 1014.3 - 1.0
31/11:00pm 10.8 8.3 8.4 85 1.2 NE 11 13 6 7 1014.9 - 0.8
31/10:30pm 11.8 9.3 9.7 87 1.1 N 13 17 7 9 1015.1 - 0.8
31/10:00pm 12.9 10.7 10.8 87 1.1 E 13 17 7 9 1015.0 - 0.8
31/09:30pm 13.5 13.0 10.9 84 1.4 SSW 4 9 2 5 1016.1 - 0.4
31/09:00pm 14.2 13.3 10.8 80 1.8 NNW 6 7 3 4 1015.9 1016.0 0.2
31/08:30pm 15.0 13.6 9.4 69 2.9 N 7 9 4 5 1015.6 - 0.2
31/08:00pm 15.7 11.6 8.7 63 3.6 N 20 28 11 15 1015.2 - 0.2
31/07:30pm 15.6 12.5 10.2 70 2.8 NNW 17 24 9 13 1015.8 - 0.0
31/07:00pm 17.7 15.7 10.1 61 4.0 N 11 20 6 11 1014.9 - 0.0
31/06:30pm 17.1 15.8 12.6 75 2.5 NNE 11 13 6 7 1014.5 - 0.0
31/06:00pm 19.4 18.5 10.7 57 4.7 WNW 6 7 3 4 1014.5 1014.5 0.0
31/05:30pm 20.9 19.0 10.4 51 5.7 WNW 11 13 6 7 1014.5 - 0.0
31/05:00pm 20.9 20.0 11.5 55 5.2 NW 7 9 4 5 1014.5 - 0.0
31/04:30pm 19.4 18.0 10.9 58 4.6 WNW 9 13 5 7 1014.8 - 0.0
31/04:00pm 22.4 18.4 8.1 40 7.5 NW 19 24 10 13 1014.9 - 0.0
31/03:30pm 22.6 18.6 8.3 40 7.6 NNW 19 28 10 15 1015.0 - 0.0
31/03:00pm 22.3 17.9 9.1 43 7.1 NW 22 30 12 16 1015.3 1015.4 0.0
31/02:30pm 22.6 19.1 8.7 41 7.4 NNW 17 28 9 15 1015.6 - 0.0
31/02:00pm 21.0 16.9 8.6 45 6.5 NNW 20 26 11 14 1015.9 - 0.0
31/01:30pm 20.8 15.9 6.7 40 7.2 NNW 22 30 12 16 1016.3 - 0.0
31/01:00pm 20.6 16.3 7.2 42 6.9 NNW 19 28 10 15 1016.7 - 0.0
31/12:30pm 21.5 15.9 7.0 39 7.5 NNW 26 33 14 18 1017.1 - 0.0
31/12:00pm 21.5 16.4 7.7 41 7.2 NNW 24 32 13 17 1017.5 1017.6 0.0
31/11:30am 20.7 14.9 6.3 39 7.3 N 26 35 14 19 1018.0 - 0.0
31/11:00am 20.4 14.0 5.2 37 7.5 NNW 28 35 15 19 1018.3 - 0.0
31/10:30am 19.6 13.7 5.6 40 6.9 NNW 26 37 14 20 1018.2 - 0.0
31/10:00am 18.3 12.0 5.5 43 6.3 N 28 35 15 19 1018.4 - 0.0
31/09:30am 16.9 10.4 4.6 44 5.8 N 28 37 15 20 1018.6 - 0.0
31/09:00am 15.3 8.7 4.4 48 5.1 N 28 39 15 21 1018.7 1018.8 0.0
31/08:30am 13.9 6.7 2.8 47 5.0 N 30 41 16 22 1018.6 - 0.0
31/08:00am 13.1 5.8 2.4 48 4.7 N 30 41 16 22 1018.4 - 0.0
31/07:30am 12.3 5.3 2.2 50 4.4 N 28 41 15 22 1018.3 - 0.0
31/07:00am 12.0 4.9 1.6 49 4.4 N 28 39 15 21 1018.0 - 0.0
31/06:30am 11.6 5.0 1.8 51 4.2 N 26 33 14 18 1017.9 - 0.0
31/06:00am 11.3 4.6 1.5 51 4.1 N 26 35 14 19 1017.9 1018.0 0.0
31/05:30am 11.0 4.4 1.8 53 3.9 N 26 33 14 18 1018.1 - 0.0
31/05:00am 11.1 5.2 1.6 52 4.0 N 22 32 12 17 1017.9 - 0.0
31/04:30am 11.6 6.1 1.8 51 4.2 NNE 20 28 11 15 1017.9 - 0.0
31/04:00am 12.0 6.5 1.6 49 4.4 NNE 20 28 11 15 1018.2 - 0.0
31/03:30am 11.1 5.8 1.9 53 3.9 NNE 19 24 10 13 1018.4 - 0.0
31/03:00am 11.2 5.0 2.0 53 3.9 NNE 24 30 13 16 1018.6 1018.7 0.0
31/02:30am 8.9 4.8 2.5 64 2.7 NE 13 17 7 9 1019.0 - 0.0
31/02:00am 8.6 4.1 2.4 65 2.6 NE 15 17 8 9 1019.5 - 0.0
31/01:30am 8.9 4.8 2.5 64 2.7 ENE 13 17 7 9 1019.8 - 0.0
31/01:00am 7.2 3.1 2.5 72 2.0 NE 13 15 7 8 1020.0 - 0.0
31/12:30am 6.8 2.7 2.5 74 1.8 NE 13 15 7 8 1020.0 - 0.0
31/12:00am 6.3 1.8 2.4 76 1.6 NE 15 17 8 9 1020.2 1020.2 0.0
 
Date/Time
CST
Temp
°C
App
Temp
°C
Dew
Point
Rel
Hum
%
Delta-T
°C
Wind Press
QNH
hPa
Press
MSL
hPa
Rain
since 9 am
mm
Dir
 
Spd
km/h
Gust
km/h
Spd
kts
Gust
kts
30/11:30pm 6.9 2.8 2.4 73 1.9 NE 13 15 7 8 1020.4 - 0.0
30/11:00pm 6.7 2.2 2.4 74 1.8 NNE 15 17 8 9 1020.8 - 0.0
30/10:30pm 7.4 2.9 2.3 70 2.1 NE 15 17 8 9 1021.1 - 0.0
30/10:00pm 6.6 2.1 2.1 73 1.8 NNE 15 17 8 9 1021.4 - 0.0
30/09:30pm 6.9 2.4 2.4 73 1.9 NNE 15 17 8 9 1021.3 - 0.0
30/09:00pm 7.6 3.1 2.3 69 2.2 NE 15 17 8 9 1021.5 1021.5 0.0
30/08:30pm 7.2 3.1 2.5 72 2.0 NNE 13 15 7 8 1021.7 - 0.0
30/08:00pm 7.2 2.8 2.7 73 1.9 NNE 15 15 8 8 1021.3 - 0.0
30/07:30pm 7.2 3.3 3.3 76 1.7 NNE 13 15 7 8 1020.9 - 0.0
30/07:00pm 8.4 4.9 3.7 72 2.0 NE 11 13 6 7 1020.6 - 0.0
30/06:30pm 10.6 7.3 4.5 66 2.7 NE 11 13 6 7 1020.3 - 0.0
30/06:00pm 14.3 10.7 3.2 47 5.0 ENE 11 15 6 8 1020.2 1020.2 0.0
30/05:30pm 15.2 11.7 3.7 46 5.3 ENE 11 13 6 7 1020.2 - 0.0
30/05:00pm 16.7 12.7 2.7 39 6.4 NE 13 19 7 10 1020.3 - 0.0
30/04:30pm 18.6 15.1 3.6 37 7.1 NE 11 15 6 8 1020.6 - 0.0
30/04:00pm 18.6 14.9 2.4 34 7.5 N 11 19 6 10 1020.7 - 0.0
30/03:30pm 18.7 14.6 2.1 33 7.6 NNE 13 20 7 11 1020.8 - 0.0
30/03:00pm 18.8 14.7 2.2 33 7.6 NNE 13 22 7 12 1021.1 1021.1 0.0
30/02:30pm 18.3 13.4 1.8 33 7.5 N 17 28 9 15 1021.3 - 0.0
30/02:00pm 18.5 14.1 4.7 40 6.6 N 17 26 9 14 1021.7 - 0.0
30/01:30pm 18.0 12.8 2.7 36 7.0 N 19 30 10 16 1022.2 - 0.0
30/01:00pm 18.4 13.6 2.7 35 7.3 N 17 24 9 13 1022.7 - 0.0
30/12:30pm 18.1 13.4 3.2 37 6.9 NNE 17 24 9 13 1023.2 - 0.0
30/12:00pm 17.8 13.6 4.0 40 6.5 NNE 15 24 8 13 1023.7 1023.7 0.0
30/11:30am 17.5 12.9 5.4 45 5.9 NNE 19 30 10 16 1024.0 - 0.0
30/11:00am 16.4 11.4 3.5 42 6.0 NNE 19 28 10 15 1024.3 - 0.0
30/10:30am 15.7 10.5 2.5 41 5.9 NNE 19 30 10 16 1024.6 - 0.0
30/10:00am 14.9 10.4 6.2 56 4.2 NNE 19 24 10 13 1024.9 - 0.0
30/09:30am 13.4 8.3 5.8 60 3.6 N 22 30 12 16 1025.1 - 0.0
30/09:00am 12.6 8.3 7.1 69 2.6 NNE 19 28 10 15 1025.0 1025.1 0.0
30/08:30am 10.5 7.0 7.0 79 1.7 NE 15 19 8 10 1024.8 - 0.0
30/08:00am 7.9 5.5 7.0 94 0.4 NE 9 11 5 6 1024.6 - 0.0
30/07:30am 3.2 0.3 2.8 97 0.2 ENE 7 9 4 5 1024.3 - 0.0
30/07:00am 1.0 -1.7 0.4 96 0.2 E 4 7 2 4 1024.2 - 0.0
30/06:30am 0.4 -2.8 -0.2 96 0.2 ENE 6 9 3 5 1024.1 - 0.0
30/06:00am 0.3 -1.7 -0.4 95 0.2 CALM 0 9 0 5 1024.0 1024.0 0.0
30/05:30am 0.5 -1.5 -0.2 95 0.3 CALM 0 0 0 0 1023.9 - 0.0
30/05:00am 0.6 -1.8 -0.1 95 0.3 S 2 6 1 3 1024.0 - 0.0
30/04:30am 1.0 -0.9 0.3 95 0.3 CALM 0 0 0 0 1024.1 - 0.0
30/04:00am 1.3 -2.0 0.3 93 0.4 S 7 9 4 5 1024.2 - 0.0
30/03:30am 4.6 2.7 2.9 89 0.7 E 2 9 1 5 1024.2 - 0.0
30/03:00am 5.8 3.2 4.3 90 0.6 E 7 9 4 5 1024.5 1024.5 0.0
30/02:30am 5.6 3.2 4.1 90 0.6 E 6 9 3 5 1024.8 - 0.0
30/02:00am 5.0 2.4 4.1 94 0.4 ENE 7 11 4 6 1025.2 - 0.0
30/01:30am 4.3 1.4 2.5 88 0.7 ENE 7 11 4 6 1025.5 - 0.0
30/01:00am 4.8 2.0 3.0 88 0.7 E 7 11 4 6 1025.8 - 0.0
30/12:30am 4.4 0.8 2.9 90 0.6 E 11 13 6 7 1025.9 - 0.0
30/12:00am 4.6 1.4 2.9 89 0.7 E 9 11 5 6 1026.2 1026.3 0.0
 
Date/Time
CST
Temp
°C
App
Temp
°C
Dew
Point
Rel
Hum
%
Delta-T
°C
Wind Press
QNH
hPa
Press
MSL
hPa
Rain
since 9 am
mm
Dir
 
Spd
km/h
Gust
km/h
Spd
kts
Gust
kts
29/11:30pm 4.2 1.5 2.7 90 0.6 ESE 6 9 3 5 1026.2 - 0.0

Other Formats:

Comma delimited format used in spreadsheet applications
http://www.bom.gov.au/fwo/IDS60801/IDS60801.95654.axf

JavaScript Object Notation format (JSON) in row-major order
http://www.bom.gov.au/fwo/IDS60801/IDS60801.95654.json